Time;durP1;ratioP1;P1;durP2;ratioP2;P2;SDS_P1;SDS_P2;PMS_P1;PMS_P2;Temp;Humidity;BMP_temperature;BMP_pressure;BME280_temperature;BME280_humidity;BME280_pressure;Samples;Min_cycle;Max_cycle;Signal;HPM_P1;HPM_P2
2022/01/10 00:00:05;;;;;;;;;;;5.00;99.90;5.50;98953.00;;;;348668;27;83371;-95
2022/01/10 00:00:18;;;;;;;;;;;5.00;99.90;5.50;98945.00;;;;346834;28;91125;-96
2022/01/10 00:00:30;;;;;;;;;;;5.00;99.90;5.50;98952.00;;;;344358;28;82590;-95
2022/01/10 00:00:48;;;;;;;;;;;5.00;99.90;5.50;98951.00;;;;347157;28;87348;-95
2022/01/10 00:01:00;;;;;;;;;;;5.00;99.90;5.60;98947.00;;;;347685;28;82342;-95
2022/01/10 00:01:12;;;;;;;;;;;5.10;99.90;5.50;98942.00;;;;345577;28;88720;-95
2022/01/10 00:01:28;;;;;;;;;;;5.00;99.90;5.50;98944.00;;;;346323;28;82455;-95
2022/01/10 00:01:42;;;;;;;;;;;5.00;99.90;5.50;98955.00;;;;347362;28;86298;-96
2022/01/10 00:01:54;;;;;;;;;;;5.00;99.90;5.50;98952.00;;;;348735;27;83532;-95
2022/01/10 00:02:06;;;;;;;;;;;5.00;99.90;5.50;98954.00;;;;347149;28;88314;-95
2022/01/10 00:02:18;;;;;;;;;;;5.00;99.90;5.60;98957.00;;;;346086;28;82620;-95
2022/01/10 00:02:30;;;;;;;;;;;5.00;99.90;5.70;98959.00;;;;344520;28;90131;-95
2022/01/10 00:02:43;;;;;;;;;;;5.00;99.90;5.60;98953.00;;;;347718;28;82573;-95
2022/01/10 00:02:56;;;;;;;;;;;5.10;99.90;5.60;98944.00;;;;346003;28;90308;-96
2022/01/10 00:03:08;;;;;;;;;;;5.00;99.90;5.60;98950.00;;;;347748;27;84031;-96
2022/01/10 00:03:22;;;;;;;;;;;5.00;99.90;5.60;98951.00;;;;346531;28;87522;-95
2022/01/10 00:03:34;;;;;;;;;;;5.10;99.90;5.60;98952.00;;;;347912;28;82516;-94
2022/01/10 00:03:46;;;;;;;;;;;5.00;99.90;5.60;98953.00;;;;347305;28;90894;-94
2022/01/10 00:03:58;;;;;;;;;;;5.00;99.90;5.60;98954.00;;;;347906;28;82581;-95
2022/01/10 00:04:10;;;;;;;;;;;5.00;99.90;5.60;98952.00;;;;350364;27;90153;-95
2022/01/10 00:04:22;;;;;;;;;;;5.00;99.90;5.60;98953.00;;;;346737;28;82270;-95
2022/01/10 00:04:33;;;;;;;;;;;5.00;99.90;5.70;98946.00;;;;346022;28;89590;-95
2022/01/10 00:04:45;;;;;;;;;;;5.00;99.90;5.80;98950.00;;;;348117;28;82533;-95
2022/01/10 00:04:57;;;;;;;;;;;5.10;99.90;5.80;98954.00;;;;348979;27;90129;-94
2022/01/10 00:05:10;;;;;;;;;;;5.00;99.90;5.70;98959.00;;;;349136;27;82270;-95
2022/01/10 00:05:21;;;;;;;;;;;5.10;99.90;5.70;98957.00;;;;347437;28;90656;-95
2022/01/10 00:05:33;;;;;;;;;;;5.10;99.90;5.80;98950.00;;;;344988;28;82478;-95
2022/01/10 00:05:45;;;;;;;;;;;5.10;99.90;5.80;98946.00;;;;344887;28;87619;-94
2022/01/10 00:05:57;;;;;;;;;;;5.10;99.90;5.90;98949.00;;;;347636;28;82389;-95
2022/01/10 00:06:09;;;;;;;;;;;5.10;99.90;5.90;98950.00;;;;347622;28;88401;-94
2022/01/10 00:06:21;;;;;;;;;;;5.10;99.90;5.70;98948.00;;;;349238;27;83428;-96
2022/01/10 00:06:33;;;;;;;;;;;5.10;99.90;5.80;98957.00;;;;348773;27;88766;-95
2022/01/10 00:06:45;;;;;;;;;;;5.10;99.90;5.90;98951.00;;;;346653;28;82332;-95
2022/01/10 00:06:57;;;;;;;;;;;5.10;99.90;5.90;98947.00;;;;346263;28;87600;-96
2022/01/10 00:07:09;;;;;;;;;;;5.10;99.90;5.80;98950.00;;;;346446;28;82462;-95
2022/01/10 00:07:20;;;;;;;;;;;5.10;99.90;5.70;98948.00;;;;346132;28;88320;-95
2022/01/10 00:07:32;;;;;;;;;;;5.10;99.90;5.70;98950.00;;;;347938;28;82186;-95
2022/01/10 00:07:44;;;;;;;;;;;5.10;99.90;5.80;98949.00;;;;348622;27;86822;-93
2022/01/10 00:07:56;;;;;;;;;;;5.10;99.90;5.70;98953.00;;;;346573;28;83390;-95
2022/01/10 00:08:08;;;;;;;;;;;5.10;99.90;5.70;98951.00;;;;348846;27;90012;-95
2022/01/10 00:08:19;;;;;;;;;;;5.10;99.90;5.70;98946.00;;;;348146;28;82400;-95
2022/01/10 00:08:32;;;;;;;;;;;5.10;99.90;5.70;98949.00;;;;347348;28;91404;-96
2022/01/10 00:08:44;;;;;;;;;;;5.10;99.90;5.70;98941.00;;;;349266;27;82455;-96
2022/01/10 00:08:56;;;;;;;;;;;5.10;99.90;5.60;98954.00;;;;347386;28;90100;-95
2022/01/10 00:09:08;;;;;;;;;;;5.10;99.90;5.70;98956.00;;;;346236;28;82434;-94
2022/01/10 00:09:20;;;;;;;;;;;5.10;99.90;5.70;98959.00;;;;348798;27;87163;-95
2022/01/10 00:09:31;;;;;;;;;;;5.10;99.90;5.70;98954.00;;;;349645;27;82198;-95
2022/01/10 00:09:43;;;;;;;;;;;5.10;99.90;5.60;98952.00;;;;345144;28;87922;-95
2022/01/10 00:09:55;;;;;;;;;;;5.10;99.90;5.60;98955.00;;;;347015;28;82345;-96
2022/01/10 00:10:07;;;;;;;;;;;5.10;99.90;5.60;98960.00;;;;347700;28;88272;-95
2022/01/10 00:10:19;;;;;;;;;;;5.10;99.90;5.50;98960.00;;;;348278;28;82269;-96
2022/01/10 00:10:32;;;;;;;;;;;5.10;99.90;5.50;98954.00;;;;348931;27;91068;-95
2022/01/10 00:10:44;;;;;;;;;;;5.10;99.90;5.60;98957.00;;;;347063;28;82292;-95
2022/01/10 00:10:55;;;;;;;;;;;5.10;99.90;5.60;98956.00;;;;350435;27;90101;-95
2022/01/10 00:11:07;;;;;;;;;;;5.10;99.90;5.60;98962.00;;;;349754;27;82338;-95
2022/01/10 00:11:19;;;;;;;;;;;5.10;99.90;5.50;98964.00;;;;347767;28;88273;-96
2022/01/10 00:11:31;;;;;;;;;;;5.00;99.90;5.50;98956.00;;;;348225;28;82351;-94
2022/01/10 00:11:43;;;;;;;;;;;5.10;99.90;5.60;98957.00;;;;347707;28;88224;-95
2022/01/10 00:11:54;;;;;;;;;;;5.10;99.90;5.60;98966.00;;;;348220;27;82413;-95
2022/01/10 00:12:07;;;;;;;;;;;5.00;99.90;5.50;98952.00;;;;347931;28;87816;-95
2022/01/10 00:12:19;;;;;;;;;;;5.10;99.90;5.70;98969.00;;;;347981;28;82588;-96
2022/01/10 00:12:31;;;;;;;;;;;5.10;99.90;5.70;98960.00;;;;346127;28;89075;-95
2022/01/10 00:12:43;;;;;;;;;;;5.10;99.90;5.80;98960.00;;;;349391;27;82503;-96
2022/01/10 00:12:54;;;;;;;;;;;5.00;99.90;5.80;98959.00;;;;347284;28;87203;-95
2022/01/10 00:13:06;;;;;;;;;;;5.10;99.90;5.80;98951.00;;;;348145;28;82316;-94
2022/01/10 00:13:19;;;;;;;;;;;5.10;99.90;5.80;98955.00;;;;349204;27;87084;-96
2022/01/10 00:13:31;;;;;;;;;;;5.10;99.90;5.80;98957.00;;;;346568;28;82426;-94
2022/01/10 00:13:42;;;;;;;;;;;5.10;99.90;5.80;98950.00;;;;349060;27;88068;-95
2022/01/10 00:13:54;;;;;;;;;;;5.10;99.90;5.80;98958.00;;;;349686;27;82193;-96
2022/01/10 00:14:06;;;;;;;;;;;5.10;99.90;5.80;98962.00;;;;350377;27;90834;-95
2022/01/10 00:14:18;;;;;;;;;;;5.10;99.90;5.80;98960.00;;;;348207;28;82345;-95
2022/01/10 00:14:31;;;;;;;;;;;5.10;99.90;5.90;98953.00;;;;346177;28;88886;-95
2022/01/10 00:14:42;;;;;;;;;;;5.10;99.90;5.90;98958.00;;;;346838;28;82271;-96
2022/01/10 00:14:55;;;;;;;;;;;5.10;99.90;5.70;98957.00;;;;347696;28;88588;-95
2022/01/10 00:15:07;;;;;;;;;;;5.10;99.90;5.70;98965.00;;;;347887;28;82573;-95
2022/01/10 00:15:19;;;;;;;;;;;5.10;99.90;5.70;98964.00;;;;347838;28;90487;-94
2022/01/10 00:15:31;;;;;;;;;;;5.10;99.90;5.60;98961.00;;;;348283;28;82522;-95
2022/01/10 00:15:44;;;;;;;;;;;5.10;99.90;5.60;98960.00;;;;347873;28;89027;-96
2022/01/10 00:15:56;;;;;;;;;;;5.10;99.90;5.50;98965.00;;;;349740;27;82387;-95
2022/01/10 00:16:08;;;;;;;;;;;5.00;99.90;5.50;98970.00;;;;347916;28;88409;-96
2022/01/10 00:16:20;;;;;;;;;;;5.10;99.90;5.40;98964.00;;;;346819;28;82547;-95
2022/01/10 00:16:32;;;;;;;;;;;5.00;99.90;5.40;98974.00;;;;346506;28;92084;-94
2022/01/10 00:16:44;;;;;;;;;;;5.00;99.90;5.50;98968.00;;;;348565;28;83292;-95
2022/01/10 00:16:56;;;;;;;;;;;5.00;99.90;5.40;98965.00;;;;344761;28;87302;-95
2022/01/10 00:17:07;;;;;;;;;;;5.00;99.90;5.40;98960.00;;;;346665;28;82550;-96
2022/01/10 00:17:19;;;;;;;;;;;5.00;99.90;5.40;98972.00;;;;348991;27;89346;-96
2022/01/10 00:17:31;;;;;;;;;;;5.00;99.90;5.40;98970.00;;;;348563;28;82451;-95
2022/01/10 00:17:43;;;;;;;;;;;5.00;99.90;5.40;98968.00;;;;349025;27;88661;-95
2022/01/10 00:17:55;;;;;;;;;;;5.00;99.90;5.40;98973.00;;;;349826;27;82456;-95
2022/01/10 00:18:07;;;;;;;;;;;5.00;99.90;5.40;98972.00;;;;347509;28;90470;-96
2022/01/10 00:18:19;;;;;;;;;;;4.90;99.90;5.40;98969.00;;;;347931;28;82460;-96
2022/01/10 00:18:31;;;;;;;;;;;4.90;99.90;5.40;98963.00;;;;344754;28;88999;-95
2022/01/10 00:18:43;;;;;;;;;;;4.90;99.90;5.30;98965.00;;;;346102;28;82500;-95
2022/01/10 00:18:55;;;;;;;;;;;4.90;99.90;5.30;98975.00;;;;344974;28;88327;-94
2022/01/10 00:19:07;;;;;;;;;;;4.90;99.90;5.30;98971.00;;;;346834;28;82326;-96
2022/01/10 00:19:19;;;;;;;;;;;4.90;99.90;5.30;98963.00;;;;346228;28;88434;-96
2022/01/10 00:19:31;;;;;;;;;;;4.90;99.90;5.40;98964.00;;;;345564;28;82312;-95
2022/01/10 00:19:42;;;;;;;;;;;4.90;99.90;5.40;98964.00;;;;348197;28;86820;-95
2022/01/10 00:19:54;;;;;;;;;;;4.90;99.90;5.40;98964.00;;;;346893;28;83817;-95
2022/01/10 00:20:07;;;;;;;;;;;4.90;99.90;5.40;98966.00;;;;349714;27;89556;-95
2022/01/10 00:20:19;;;;;;;;;;;4.90;99.90;5.40;98961.00;;;;350239;27;82546;-96
2022/01/10 00:20:31;;;;;;;;;;;4.90;99.90;5.40;98965.00;;;;347158;28;89283;-94
2022/01/10 00:20:43;;;;;;;;;;;4.90;99.90;5.40;98972.00;;;;347884;28;82365;-95
2022/01/10 00:20:54;;;;;;;;;;;4.90;99.90;5.40;98965.00;;;;347223;28;89542;-95
2022/01/10 00:21:06;;;;;;;;;;;4.90;99.90;5.40;98956.00;;;;349030;28;82425;-96
2022/01/10 00:21:18;;;;;;;;;;;4.90;99.90;5.40;98959.00;;;;347254;28;87658;-95
2022/01/10 00:21:30;;;;;;;;;;;4.90;99.90;5.40;98964.00;;;;349048;28;82568;-96
2022/01/10 00:21:42;;;;;;;;;;;4.90;99.90;5.40;98965.00;;;;348588;28;90191;-95
2022/01/10 00:21:54;;;;;;;;;;;4.90;99.90;5.40;98957.00;;;;350343;27;82444;-95
2022/01/10 00:22:08;;;;;;;;;;;4.90;99.90;5.40;98965.00;;;;348849;28;88095;-95
2022/01/10 00:22:20;;;;;;;;;;;4.90;99.90;5.40;98964.00;;;;350450;27;82372;-94
2022/01/10 00:22:32;;;;;;;;;;;4.90;99.90;5.40;98958.00;;;;348301;27;88123;-95
2022/01/10 00:22:46;;;;;;;;;;;4.80;99.90;5.50;98963.00;;;;349257;28;82353;-95
2022/01/10 00:22:57;;;;;;;;;;;4.90;99.90;5.50;98962.00;;;;348642;28;86998;-94
2022/01/10 00:23:10;;;;;;;;;;;4.90;99.90;5.50;98963.00;;;;351786;27;82318;-94
2022/01/10 00:23:22;;;;;;;;;;;4.90;99.90;5.50;98961.00;;;;349825;27;91788;-96
2022/01/10 00:23:34;;;;;;;;;;;4.90;99.90;5.50;98954.00;;;;346371;28;82400;-94
2022/01/10 00:23:46;;;;;;;;;;;4.90;99.90;5.50;98950.00;;;;346863;28;88266;-94
2022/01/10 00:23:58;;;;;;;;;;;4.90;99.90;5.50;98959.00;;;;348015;28;82338;-94
2022/01/10 00:24:10;;;;;;;;;;;4.90;99.90;5.60;98958.00;;;;347201;28;90362;-94
2022/01/10 00:24:22;;;;;;;;;;;4.90;99.90;5.50;98954.00;;;;350799;27;82302;-95
2022/01/10 00:24:34;;;;;;;;;;;4.90;99.90;5.50;98952.00;;;;351505;27;89044;-95
2022/01/10 00:24:46;;;;;;;;;;;4.90;99.90;5.50;98951.00;;;;350464;27;82381;-95
2022/01/10 00:24:58;;;;;;;;;;;4.90;99.90;5.50;98955.00;;;;349970;27;90164;-95
2022/01/10 00:25:10;;;;;;;;;;;4.90;99.90;5.40;98960.00;;;;349254;28;83131;-94
2022/01/10 00:25:22;;;;;;;;;;;4.90;99.90;5.40;98959.00;;;;348626;28;90457;-95
2022/01/10 00:25:34;;;;;;;;;;;4.90;99.90;5.30;98959.00;;;;350499;27;82340;-96
2022/01/10 00:25:46;;;;;;;;;;;4.90;99.90;5.30;98956.00;;;;347459;28;88405;-94
2022/01/10 00:25:58;;;;;;;;;;;4.90;99.90;5.30;98953.00;;;;346465;28;82246;-94
2022/01/10 00:26:09;;;;;;;;;;;4.90;99.90;5.30;98954.00;;;;345892;28;88459;-95
2022/01/10 00:26:21;;;;;;;;;;;4.90;99.90;5.30;98955.00;;;;346742;28;82380;-95
2022/01/10 00:26:33;;;;;;;;;;;4.90;99.90;5.40;98953.00;;;;348443;28;90617;-96
2022/01/10 00:26:45;;;;;;;;;;;4.90;99.90;5.50;98949.00;;;;347538;28;83529;-96
2022/01/10 00:26:56;;;;;;;;;;;4.90;99.90;5.50;98943.00;;;;348904;27;87011;-96
2022/01/10 00:27:08;;;;;;;;;;;4.90;99.90;5.50;98947.00;;;;349236;28;82412;-94
2022/01/10 00:27:20;;;;;;;;;;;4.90;99.90;5.40;98946.00;;;;348530;28;90584;-93
2022/01/10 00:27:32;;;;;;;;;;;4.90;99.90;5.40;98954.00;;;;347833;28;82486;-94
2022/01/10 00:27:44;;;;;;;;;;;4.90;99.90;5.40;98945.00;;;;348975;28;87965;-94
2022/01/10 00:27:56;;;;;;;;;;;4.90;99.90;5.30;98949.00;;;;349170;28;82439;-94
2022/01/10 00:28:08;;;;;;;;;;;4.90;99.90;5.30;98941.00;;;;348715;28;87890;-95
2022/01/10 00:28:20;;;;;;;;;;;4.90;99.90;5.30;98944.00;;;;350440;27;82258;-95
2022/01/10 00:28:32;;;;;;;;;;;4.90;99.90;5.30;98951.00;;;;349907;27;90902;-93
2022/01/10 00:28:44;;;;;;;;;;;4.90;99.90;5.30;98943.00;;;;350719;27;82191;-94
2022/01/10 00:28:55;;;;;;;;;;;4.90;99.90;5.30;98938.00;;;;350238;27;87905;-95
2022/01/10 00:29:07;;;;;;;;;;;4.90;99.90;5.30;98940.00;;;;348823;28;82564;-93
2022/01/10 00:29:19;;;;;;;;;;;4.90;99.90;5.30;98940.00;;;;347046;28;86688;-95
2022/01/10 00:29:31;;;;;;;;;;;4.90;99.90;5.30;98934.00;;;;348857;28;82666;-94
2022/01/10 00:29:43;;;;;;;;;;;4.90;99.90;5.30;98940.00;;;;347347;28;88215;-94
2022/01/10 00:29:55;;;;;;;;;;;4.90;99.90;5.40;98944.00;;;;350414;27;82474;-95
2022/01/10 00:30:07;;;;;;;;;;;4.90;99.90;5.40;98941.00;;;;350225;27;88155;-94
2022/01/10 00:30:19;;;;;;;;;;;4.90;99.90;5.40;98943.00;;;;350369;27;82406;-95
2022/01/10 00:30:31;;;;;;;;;;;4.90;99.90;5.40;98941.00;;;;347002;28;91415;-94
2022/01/10 00:30:43;;;;;;;;;;;4.90;99.90;5.40;98938.00;;;;348014;28;82357;-94
2022/01/10 00:30:55;;;;;;;;;;;4.90;99.90;5.40;98940.00;;;;350038;27;89790;-94
2022/01/10 00:31:07;;;;;;;;;;;4.90;99.90;5.40;98941.00;;;;347547;28;82567;-95
2022/01/10 00:31:19;;;;;;;;;;;4.90;99.90;5.40;98940.00;;;;347467;28;87096;-94
2022/01/10 00:31:31;;;;;;;;;;;4.90;99.90;5.30;98947.00;;;;347883;28;82390;-94
2022/01/10 00:31:43;;;;;;;;;;;4.90;99.90;5.30;98941.00;;;;348609;28;89469;-95
2022/01/10 00:31:57;;;;;;;;;;;4.80;99.90;5.30;98948.00;;;;349204;28;82469;-94
2022/01/10 00:32:09;;;;;;;;;;;4.90;99.90;5.30;98939.00;;;;348687;28;88459;-95
2022/01/10 00:32:23;;;;;;;;;;;4.80;99.90;5.30;98945.00;;;;347532;28;82599;-94
2022/01/10 00:32:34;;;;;;;;;;;4.90;99.90;5.40;98946.00;;;;347311;28;89275;-95
2022/01/10 00:32:46;;;;;;;;;;;4.80;99.90;5.30;98937.00;;;;348874;28;82464;-94
2022/01/10 00:32:58;;;;;;;;;;;4.80;99.90;5.40;98945.00;;;;348628;28;89693;-95
2022/01/10 00:33:10;;;;;;;;;;;4.80;99.90;5.40;98939.00;;;;348980;28;82400;-94
2022/01/10 00:33:22;;;;;;;;;;;4.80;99.90;5.40;98945.00;;;;347268;28;88092;-94
2022/01/10 00:33:33;;;;;;;;;;;4.80;99.90;5.40;98944.00;;;;346030;28;82452;-95
2022/01/10 00:33:45;;;;;;;;;;;4.90;99.90;5.40;98940.00;;;;347247;28;89925;-94
2022/01/10 00:33:57;;;;;;;;;;;4.80;99.90;5.40;98946.00;;;;350652;27;82446;-95
2022/01/10 00:34:10;;;;;;;;;;;4.90;99.90;5.30;98940.00;;;;348394;28;89249;-95
2022/01/10 00:34:22;;;;;;;;;;;4.80;99.90;5.40;98947.00;;;;350854;27;82363;-94
2022/01/10 00:34:34;;;;;;;;;;;4.80;99.90;5.50;98937.00;;;;348644;28;89026;-95
2022/01/10 00:34:46;;;;;;;;;;;4.80;99.90;5.50;98937.00;;;;350466;27;82582;-94
2022/01/10 00:34:58;;;;;;;;;;;4.80;99.90;5.40;98941.00;;;;351371;27;87108;-96
2022/01/10 00:35:10;;;;;;;;;;;4.80;99.90;5.40;98938.00;;;;347325;28;82265;-95
2022/01/10 00:35:22;;;;;;;;;;;4.80;99.90;5.40;98938.00;;;;344951;28;86559;-94
2022/01/10 00:35:33;;;;;;;;;;;4.80;99.90;5.40;98935.00;;;;349092;28;83000;-96
2022/01/10 00:35:46;;;;;;;;;;;4.80;99.90;5.40;98938.00;;;;349654;27;87417;-93
2022/01/10 00:35:58;;;;;;;;;;;4.80;99.90;5.40;98944.00;;;;350599;27;82382;-94
2022/01/10 00:36:11;;;;;;;;;;;4.80;99.90;5.40;98941.00;;;;346017;28;87329;-95
2022/01/10 00:36:25;;;;;;;;;;;4.90;99.90;5.40;98938.00;;;;350417;27;82380;-95
2022/01/10 00:36:37;;;;;;;;;;;4.80;99.90;5.40;98933.00;;;;350117;27;87767;-94
2022/01/10 00:36:48;;;;;;;;;;;4.80;99.90;5.40;98944.00;;;;349253;28;82425;-95
2022/01/10 00:37:00;;;;;;;;;;;4.80;99.90;5.50;98952.00;;;;348609;28;88638;-94
2022/01/10 00:37:12;;;;;;;;;;;4.80;99.90;5.50;98945.00;;;;349211;28;82430;-95
2022/01/10 00:37:24;;;;;;;;;;;4.80;99.90;5.50;98942.00;;;;348880;28;86591;-94
2022/01/10 00:37:36;;;;;;;;;;;4.80;99.90;5.40;98946.00;;;;349020;28;82340;-95
2022/01/10 00:37:48;;;;;;;;;;;4.80;99.90;5.40;98950.00;;;;346287;28;89940;-96
2022/01/10 00:37:59;;;;;;;;;;;4.80;99.90;5.40;98947.00;;;;347569;28;82383;-96
2022/01/10 00:38:12;;;;;;;;;;;4.80;99.90;5.40;98942.00;;;;346546;28;90878;-96
2022/01/10 00:38:24;;;;;;;;;;;4.80;99.90;5.30;98944.00;;;;347275;28;82403;-94
2022/01/10 00:38:36;;;;;;;;;;;4.80;99.90;5.30;98945.00;;;;347139;28;89360;-96
2022/01/10 00:38:47;;;;;;;;;;;4.80;99.90;5.30;98944.00;;;;347599;28;82439;-95
2022/01/10 00:38:59;;;;;;;;;;;4.80;99.90;5.30;98946.00;;;;346731;28;86991;-95
2022/01/10 00:39:11;;;;;;;;;;;4.80;99.90;5.30;98946.00;;;;348507;27;82647;-95
2022/01/10 00:39:23;;;;;;;;;;;4.80;99.90;5.30;98948.00;;;;348563;27;88277;-95
2022/01/10 00:39:35;;;;;;;;;;;4.80;99.90;5.30;98950.00;;;;345949;28;82362;-95
2022/01/10 00:39:48;;;;;;;;;;;4.80;99.90;5.40;98943.00;;;;346998;28;88045;-95
2022/01/10 00:40:01;;;;;;;;;;;4.80;99.90;5.30;98944.00;;;;347211;28;82423;-96
2022/01/10 00:40:14;;;;;;;;;;;4.80;99.90;5.40;98947.00;;;;349957;27;88102;-95
2022/01/10 00:40:26;;;;;;;;;;;4.80;99.90;5.40;98947.00;;;;346113;28;82307;-95
2022/01/10 00:40:39;;;;;;;;;;;4.80;99.90;5.40;98947.00;;;;346788;28;91599;-95
2022/01/10 00:40:52;;;;;;;;;;;4.80;99.90;5.50;98948.00;;;;349000;27;82355;-95
2022/01/10 00:41:04;;;;;;;;;;;4.80;99.90;5.50;98941.00;;;;348257;27;91757;-95
2022/01/10 00:41:16;;;;;;;;;;;4.80;99.90;5.50;98944.00;;;;347074;27;82533;-95
2022/01/10 00:41:27;;;;;;;;;;;4.80;99.90;5.50;98952.00;;;;344696;28;88967;-95
2022/01/10 00:41:40;;;;;;;;;;;4.80;99.90;5.50;98946.00;;;;347533;28;82345;-96
2022/01/10 00:41:55;;;;;;;;;;;4.80;99.90;5.50;98947.00;;;;346707;28;86548;-95
2022/01/10 00:42:07;;;;;;;;;;;4.80;99.90;5.50;98943.00;;;;349761;27;83475;-95
2022/01/10 00:42:19;;;;;;;;;;;4.80;99.90;5.40;98954.00;;;;347842;27;87052;-95
2022/01/10 00:42:32;;;;;;;;;;;4.80;99.90;5.50;98951.00;;;;347229;28;82463;-95
2022/01/10 00:42:52;;;;;;;;;;;4.80;99.90;5.50;98951.00;;;;345703;28;90335;-95
2022/01/10 00:43:04;;;;;;;;;;;4.80;99.90;5.50;98944.00;;;;347606;28;82530;-96
2022/01/10 00:43:29;;;;;;;;;;;4.80;99.90;5.40;98938.00;;;;345410;28;87256;-95
2022/01/10 00:43:45;;;;;;;;;;;4.80;99.90;5.40;98954.00;;;;348953;27;82387;-96
2022/01/10 00:44:04;;;;;;;;;;;4.80;99.90;5.40;98950.00;;;;347108;28;88542;-95
2022/01/10 00:44:16;;;;;;;;;;;4.80;99.90;5.40;98951.00;;;;346980;27;82580;-96
2022/01/10 00:44:31;;;;;;;;;;;4.80;99.90;5.50;98948.00;;;;344887;28;88034;-95
2022/01/10 00:44:51;;;;;;;;;;;4.80;99.90;5.40;98946.00;;;;348590;27;83589;-95
2022/01/10 00:45:13;;;;;;;;;;;4.80;99.90;5.40;98943.00;;;;349907;27;88324;-95
2022/01/10 00:45:26;;;;;;;;;;;4.80;99.90;5.40;98942.00;;;;346125;28;83348;-96
2022/01/10 00:45:38;;;;;;;;;;;4.80;99.90;5.40;98950.00;;;;347085;28;90135;-96
2022/01/10 00:45:50;;;;;;;;;;;4.80;99.90;5.40;98947.00;;;;347299;28;82407;-95
2022/01/10 00:46:03;;;;;;;;;;;4.80;99.90;5.40;98946.00;;;;346633;28;87373;-95
2022/01/10 00:46:14;;;;;;;;;;;4.80;99.90;5.40;98952.00;;;;345945;28;82558;-95
2022/01/10 00:46:27;;;;;;;;;;;4.80;99.90;5.30;98950.00;;;;346807;28;90687;-95
2022/01/10 00:46:39;;;;;;;;;;;4.80;99.90;5.30;98951.00;;;;345302;28;82573;-96
2022/01/10 00:46:51;;;;;;;;;;;4.80;99.90;5.30;98946.00;;;;346857;28;91457;-96
2022/01/10 00:47:03;;;;;;;;;;;4.80;99.90;5.30;98965.00;;;;346187;28;82367;-95
2022/01/10 00:47:15;;;;;;;;;;;4.80;99.90;5.40;98952.00;;;;344591;28;88718;-95
2022/01/10 00:47:26;;;;;;;;;;;4.80;99.90;5.30;98947.00;;;;345972;28;82366;-95
2022/01/10 00:47:39;;;;;;;;;;;4.80;99.90;5.30;98957.00;;;;348534;27;87562;-96
2022/01/10 00:47:51;;;;;;;;;;;4.80;99.90;5.30;98947.00;;;;347205;28;82430;-95
2022/01/10 00:48:03;;;;;;;;;;;4.80;99.90;5.40;98955.00;;;;348041;27;88485;-96
2022/01/10 00:48:15;;;;;;;;;;;4.80;99.90;5.50;98955.00;;;;347386;28;82478;-95
2022/01/10 00:48:27;;;;;;;;;;;4.80;99.90;5.60;98956.00;;;;345691;28;88189;-95
2022/01/10 00:48:39;;;;;;;;;;;4.80;99.90;5.60;98945.00;;;;348845;27;83313;-96
2022/01/10 00:48:51;;;;;;;;;;;4.90;99.90;5.70;98954.00;;;;348496;27;88297;-96
2022/01/10 00:49:03;;;;;;;;;;;4.90;99.90;5.60;98948.00;;;;347341;28;82400;-95
2022/01/10 00:49:15;;;;;;;;;;;4.90;99.90;5.50;98947.00;;;;347007;28;88409;-95
2022/01/10 00:49:26;;;;;;;;;;;4.90;99.90;5.60;98945.00;;;;344551;28;82336;-95
2022/01/10 00:49:38;;;;;;;;;;;4.90;99.90;5.60;98952.00;;;;342469;28;88402;-96
2022/01/10 00:49:50;;;;;;;;;;;4.90;99.90;5.50;98952.00;;;;344752;28;82427;-95
2022/01/10 00:50:03;;;;;;;;;;;4.90;99.90;5.50;98945.00;;;;345549;28;90471;-95
2022/01/10 00:50:15;;;;;;;;;;;4.90;99.90;5.40;98956.00;;;;345813;28;82618;-95
2022/01/10 00:50:27;;;;;;;;;;;4.90;99.90;5.40;98947.00;;;;346424;28;86629;-95
2022/01/10 00:50:40;;;;;;;;;;;4.90;99.90;5.30;98950.00;;;;346187;28;82373;-96
2022/01/10 00:50:52;;;;;;;;;;;4.90;99.90;5.30;98950.00;;;;345451;28;90186;-95
2022/01/10 00:51:04;;;;;;;;;;;4.90;99.90;5.30;98946.00;;;;348752;27;82367;-95
2022/01/10 00:51:15;;;;;;;;;;;4.90;99.90;5.30;98951.00;;;;347501;27;88383;-95
2022/01/10 00:51:29;;;;;;;;;;;4.90;99.90;5.30;98947.00;;;;345932;28;83534;-95
2022/01/10 00:51:41;;;;;;;;;;;4.90;99.90;5.30;98951.00;;;;346978;28;89905;-96
2022/01/10 00:51:52;;;;;;;;;;;4.90;99.90;5.50;98947.00;;;;347335;28;82327;-96
2022/01/10 00:52:04;;;;;;;;;;;4.90;99.90;5.50;98948.00;;;;349997;27;87121;-95
2022/01/10 00:52:16;;;;;;;;;;;4.90;99.90;5.50;98945.00;;;;344476;28;82594;-95
2022/01/10 00:52:28;;;;;;;;;;;4.90;99.90;5.60;98950.00;;;;351029;27;85475;-95
2022/01/10 00:52:40;;;;;;;;;;;4.90;99.90;5.70;98950.00;;;;346045;28;82348;-96
2022/01/10 00:52:52;;;;;;;;;;;5.00;99.90;5.70;98954.00;;;;345471;28;89037;-96
2022/01/10 00:53:04;;;;;;;;;;;5.00;99.90;5.60;98945.00;;;;347366;28;82389;-95
2022/01/10 00:53:16;;;;;;;;;;;5.00;99.90;5.60;98954.00;;;;346438;28;89748;-96
2022/01/10 00:53:28;;;;;;;;;;;5.00;99.90;5.50;98949.00;;;;347918;27;82412;-96
2022/01/10 00:53:40;;;;;;;;;;;4.90;99.90;5.40;98954.00;;;;346673;28;92610;-95
2022/01/10 00:53:52;;;;;;;;;;;5.00;99.90;5.50;98955.00;;;;344667;28;82542;-96
2022/01/10 00:54:04;;;;;;;;;;;5.00;99.90;5.40;98947.00;;;;347241;28;86993;-96
2022/01/10 00:54:16;;;;;;;;;;;5.00;99.90;5.40;98952.00;;;;349206;27;82461;-95
2022/01/10 00:54:28;;;;;;;;;;;4.90;99.90;5.40;98950.00;;;;349550;27;91050;-96
2022/01/10 00:54:39;;;;;;;;;;;5.00;99.90;5.60;98949.00;;;;348617;27;82522;-95
2022/01/10 00:54:52;;;;;;;;;;;5.00;99.90;5.60;98950.00;;;;346942;28;90064;-95
2022/01/10 00:55:04;;;;;;;;;;;5.00;99.90;5.60;98950.00;;;;348705;27;82424;-94
2022/01/10 00:55:16;;;;;;;;;;;4.90;99.90;5.60;98949.00;;;;346811;28;90896;-96
2022/01/10 00:55:29;;;;;;;;;;;5.00;99.90;5.50;98959.00;;;;344456;28;83240;-95
2022/01/10 00:55:41;;;;;;;;;;;4.90;99.90;5.50;98954.00;;;;347046;28;89284;-95
2022/01/10 00:55:53;;;;;;;;;;;5.00;99.90;5.50;98961.00;;;;348524;27;83180;-95
2022/01/10 00:56:08;;;;;;;;;;;5.00;99.90;5.50;98951.00;;;;344425;28;87846;-95
2022/01/10 00:56:20;;;;;;;;;;;5.00;99.90;5.50;98963.00;;;;347032;28;82407;-95
2022/01/10 00:56:32;;;;;;;;;;;4.90;99.90;5.40;98958.00;;;;348215;27;89993;-95
2022/01/10 00:56:44;;;;;;;;;;;5.00;99.90;5.40;98962.00;;;;348418;27;83293;-95
2022/01/10 00:56:55;;;;;;;;;;;5.00;99.90;5.40;98961.00;;;;346776;28;89999;-95
2022/01/10 00:57:07;;;;;;;;;;;5.00;99.90;5.40;98958.00;;;;348601;27;82443;-96
2022/01/10 00:57:19;;;;;;;;;;;4.90;99.90;5.40;98962.00;;;;347016;28;88735;-95
2022/01/10 00:57:31;;;;;;;;;;;4.90;99.90;5.40;98964.00;;;;344700;28;83097;-96
2022/01/10 00:57:42;;;;;;;;;;;4.90;99.90;5.40;98962.00;;;;346925;28;89997;-94
2022/01/10 00:57:54;;;;;;;;;;;4.90;99.90;5.40;98955.00;;;;348690;27;82443;-96
2022/01/10 00:58:06;;;;;;;;;;;5.00;99.90;5.40;98959.00;;;;345694;28;89504;-95
2022/01/10 00:58:18;;;;;;;;;;;4.90;99.90;5.40;98964.00;;;;347223;28;82443;-96
2022/01/10 00:58:30;;;;;;;;;;;4.90;99.90;5.40;98962.00;;;;345457;28;88856;-95
2022/01/10 00:58:41;;;;;;;;;;;4.90;99.90;5.40;98957.00;;;;348630;27;82438;-95
2022/01/10 00:58:53;;;;;;;;;;;4.90;99.90;5.40;98956.00;;;;346570;28;96535;-95
2022/01/10 00:59:05;;;;;;;;;;;4.90;99.90;5.40;98961.00;;;;348664;27;82483;-95
2022/01/10 00:59:17;;;;;;;;;;;4.90;99.90;5.40;98962.00;;;;348872;27;95160;-95
2022/01/10 00:59:30;;;;;;;;;;;4.90;99.90;5.50;98963.00;;;;346852;28;82594;-95
2022/01/10 00:59:42;;;;;;;;;;;4.90;99.90;5.50;98959.00;;;;347641;27;93096;-96
2022/01/10 00:59:54;;;;;;;;;;;4.90;99.90;5.50;98959.00;;;;347244;28;83341;-95
2022/01/10 01:00:07;;;;;;;;;;;4.90;99.90;5.40;98956.00;;;;343935;28;92398;-95
2022/01/10 01:00:19;;;;;;;;;;;4.90;99.90;5.50;98957.00;;;;348024;27;83387;-95
2022/01/10 01:00:31;;;;;;;;;;;4.90;99.90;5.50;98956.00;;;;345153;28;94546;-95
2022/01/10 01:00:43;;;;;;;;;;;4.90;99.90;5.40;98960.00;;;;345925;28;83484;-95
2022/01/10 01:00:55;;;;;;;;;;;5.00;99.90;5.40;98963.00;;;;345397;28;91629;-96
2022/01/10 01:01:06;;;;;;;;;;;4.90;99.90;5.40;98957.00;;;;344716;28;83219;-96
2022/01/10 01:01:18;;;;;;;;;;;4.90;99.90;5.40;98957.00;;;;345344;28;93418;-95
2022/01/10 01:01:31;;;;;;;;;;;4.90;99.90;5.40;98961.00;;;;345951;28;82354;-95
2022/01/10 01:01:43;;;;;;;;;;;4.90;99.90;5.40;98961.00;;;;345017;28;96293;-95
2022/01/10 01:01:55;;;;;;;;;;;4.90;99.90;5.50;98965.00;;;;346035;28;83316;-95
2022/01/10 01:02:07;;;;;;;;;;;4.90;99.90;5.50;98959.00;;;;343496;28;92231;-96
2022/01/10 01:02:21;;;;;;;;;;;4.90;99.90;5.50;98959.00;;;;346940;28;82531;-96